createdAt,value
2019-06-26T00:00:11.517Z,99.84
2019-06-26T00:02:40.723Z,99.85
2019-06-26T00:05:10.725Z,100.00
2019-06-26T00:07:39.798Z,100.00
2019-06-26T00:10:09.289Z,100.00
2019-06-26T00:12:38.671Z,100.00
2019-06-26T00:15:08.690Z,100.00
2019-06-26T00:17:37.820Z,100.00
2019-06-26T00:20:07.698Z,100.00
2019-06-26T00:22:36.749Z,100.00
2019-06-26T00:25:07.406Z,100.00
2019-06-26T00:27:36.500Z,100.00
2019-06-26T00:30:09.662Z,100.00
2019-06-26T00:32:38.727Z,100.00
2019-06-26T00:35:08.537Z,100.00
2019-06-26T00:37:38.807Z,100.00
2019-06-26T00:40:09.606Z,100.00
2019-06-26T00:42:38.831Z,100.00
2019-06-26T00:45:09.089Z,100.00
2019-06-26T00:47:38.115Z,100.00
2019-06-26T00:50:10.948Z,100.00
2019-06-26T00:52:40.103Z,100.00
2019-06-26T00:55:09.763Z,100.00
2019-06-26T00:57:38.813Z,100.00
2019-06-26T01:00:10.452Z,100.00
2019-06-26T01:02:39.560Z,100.00
2019-06-26T01:05:12.902Z,100.00
2019-06-26T01:07:41.955Z,100.00
2019-06-26T01:10:12.952Z,100.00
2019-06-26T01:12:42.081Z,100.00
2019-06-26T01:15:12.322Z,100.00
2019-06-26T01:17:41.379Z,100.00
2019-06-26T01:20:11.194Z,100.00
2019-06-26T01:22:40.249Z,100.00
2019-06-26T01:25:09.832Z,100.00
2019-06-26T01:27:38.916Z,100.00
2019-06-26T01:30:10.387Z,100.00
2019-06-26T01:32:39.540Z,100.00
2019-06-26T01:35:09.046Z,100.00
2019-06-26T01:37:38.550Z,100.00
2019-06-26T01:40:08.424Z,100.00
2019-06-26T01:42:37.475Z,100.00
2019-06-26T01:45:08.099Z,100.00
2019-06-26T01:47:37.138Z,100.00
2019-06-26T01:50:08.111Z,100.00
2019-06-26T01:52:37.556Z,100.00
2019-06-26T01:55:08.621Z,100.00
2019-06-26T01:57:37.675Z,100.00
2019-06-26T02:00:09.184Z,100.00
2019-06-26T02:02:38.239Z,100.00
2019-06-26T02:05:09.438Z,100.00
2019-06-26T02:07:38.647Z,100.00
2019-06-26T02:10:08.625Z,100.00
2019-06-26T02:12:37.699Z,100.00
2019-06-26T02:15:08.513Z,100.00
2019-06-26T02:17:37.551Z,100.00
2019-06-26T02:20:07.635Z,100.00
2019-06-26T02:22:36.773Z,100.00
2019-06-26T02:25:07.175Z,100.00
2019-06-26T02:27:36.342Z,100.00
2019-06-26T02:30:08.215Z,100.00
2019-06-26T02:32:37.395Z,100.00
2019-06-26T02:35:10.435Z,100.00
2019-06-26T02:37:38.617Z,100.00
2019-06-26T02:40:08.908Z,100.00
2019-06-26T02:42:37.955Z,100.00
2019-06-26T02:45:07.850Z,100.00
2019-06-26T02:47:36.876Z,100.00
2019-06-26T02:50:07.072Z,100.00
2019-06-26T02:52:36.136Z,100.00
2019-06-26T02:55:07.193Z,100.00
2019-06-26T02:57:36.242Z,100.00
2019-06-26T03:00:07.150Z,100.00
2019-06-26T03:02:36.213Z,100.00
2019-06-26T03:05:06.913Z,100.00
2019-06-26T03:07:36.046Z,100.00
2019-06-26T03:10:09.549Z,100.00
2019-06-26T03:12:38.571Z,100.00
2019-06-26T03:15:09.772Z,100.00
2019-06-26T03:17:54.102Z,100.00
2019-06-26T03:20:10.605Z,100.00
2019-06-26T03:22:39.856Z,100.00
2019-06-26T03:25:09.344Z,100.00
2019-06-26T03:27:38.401Z,100.00
2019-06-26T03:30:08.371Z,100.00
2019-06-26T03:32:37.435Z,100.00
2019-06-26T03:35:07.524Z,100.00
2019-06-26T03:37:36.597Z,100.00
2019-06-26T03:40:09.447Z,100.00
2019-06-26T03:42:38.503Z,100.00
2019-06-26T03:45:24.193Z,100.00
2019-06-26T03:47:39.465Z,100.00
2019-06-26T03:50:09.412Z,100.00
2019-06-26T03:52:38.541Z,100.00
2019-06-26T03:55:08.208Z,100.00
2019-06-26T03:57:37.334Z,100.00
2019-06-26T04:00:08.611Z,100.00
2019-06-26T04:02:37.738Z,100.00
2019-06-26T04:05:07.546Z,100.00
2019-06-26T04:07:36.572Z,100.00
2019-06-26T04:10:07.447Z,100.00
2019-06-26T04:12:36.547Z,100.00
2019-06-26T04:15:07.448Z,100.00
2019-06-26T04:17:36.812Z,100.00
2019-06-26T04:20:07.797Z,100.00
2019-06-26T04:22:36.955Z,100.00
2019-06-26T04:25:06.874Z,100.00
2019-06-26T04:27:35.914Z,100.00
2019-06-26T04:30:07.503Z,100.00
2019-06-26T04:32:36.723Z,100.00
2019-06-26T04:35:07.166Z,100.00
2019-06-26T04:37:36.228Z,100.00
2019-06-26T04:40:07.408Z,100.00
2019-06-26T04:42:36.924Z,100.00
2019-06-26T04:45:07.395Z,100.00
2019-06-26T04:47:37.021Z,100.00
2019-06-26T04:50:07.025Z,100.00
2019-06-26T04:52:36.058Z,100.00
2019-06-26T04:55:07.123Z,100.00
2019-06-26T04:57:36.538Z,100.00
2019-06-26T05:00:07.746Z,100.00
2019-06-26T05:02:36.758Z,100.00
2019-06-26T05:05:09.371Z,100.00
2019-06-26T05:07:38.424Z,100.00
2019-06-26T05:10:09.227Z,100.00
2019-06-26T05:12:38.399Z,100.00
2019-06-26T05:15:09.118Z,100.00
2019-06-26T05:17:38.154Z,100.00
2019-06-26T05:20:08.058Z,100.00
2019-06-26T05:22:37.556Z,100.00
2019-06-26T05:25:08.166Z,100.00
2019-06-26T05:27:37.567Z,100.00
2019-06-26T05:30:08.553Z,100.00
2019-06-26T05:32:37.596Z,100.00
2019-06-26T05:35:10.214Z,100.00
2019-06-26T05:37:39.602Z,100.00
2019-06-26T05:40:12.872Z,100.00
2019-06-26T05:42:41.919Z,100.00
2019-06-26T05:45:12.492Z,100.00
2019-06-26T05:47:41.624Z,100.00
2019-06-26T05:50:11.365Z,100.00
2019-06-26T05:52:42.827Z,100.00
2019-06-26T05:55:11.832Z,100.00
2019-06-26T05:57:42.181Z,100.00
2019-06-26T06:00:12.819Z,100.00
2019-06-26T06:02:41.895Z,100.00
2019-06-26T06:05:11.877Z,100.00
2019-06-26T06:07:41.024Z,100.00
2019-06-26T06:10:12.035Z,100.00
2019-06-26T06:12:41.104Z,100.00
2019-06-26T06:15:11.273Z,100.00
2019-06-26T06:17:40.342Z,100.00
2019-06-26T06:20:10.122Z,100.00
2019-06-26T06:22:39.181Z,100.00
2019-06-26T06:25:09.588Z,100.00
2019-06-26T06:27:38.921Z,100.00
2019-06-26T06:30:08.533Z,100.00
2019-06-26T06:32:37.634Z,100.00
2019-06-26T06:35:08.144Z,100.00
2019-06-26T06:37:37.570Z,100.00
2019-06-26T06:40:08.789Z,100.00
2019-06-26T06:42:38.531Z,100.00
2019-06-26T06:45:09.254Z,100.00
2019-06-26T06:47:38.764Z,100.00
2019-06-26T06:50:08.241Z,100.00
2019-06-26T06:52:37.734Z,100.00
2019-06-26T06:55:08.458Z,100.00
2019-06-26T06:57:37.594Z,100.00
2019-06-26T07:00:07.914Z,100.00
2019-06-26T07:02:37.204Z,97.32
2019-06-26T07:05:07.519Z,94.59
2019-06-26T07:07:36.622Z,94.83
2019-06-26T07:10:07.879Z,93.29
2019-06-26T07:12:36.986Z,90.96
2019-06-26T07:15:10.740Z,88.80
2019-06-26T07:17:39.764Z,87.67
2019-06-26T07:20:09.271Z,84.98
2019-06-26T07:22:38.621Z,83.75
2019-06-26T07:25:08.527Z,83.53
2019-06-26T07:27:37.586Z,80.84
2019-06-26T07:30:07.276Z,79.21
2019-06-26T07:32:36.325Z,74.54
2019-06-26T07:35:07.246Z,73.01
2019-06-26T07:37:36.367Z,72.03
2019-06-26T07:40:08.414Z,70.68
2019-06-26T07:42:37.469Z,73.15
2019-06-26T07:45:08.071Z,75.85
2019-06-26T07:47:42.966Z,67.92
2019-06-26T07:50:09.885Z,65.31
2019-06-26T07:52:38.994Z,67.82
2019-06-26T07:55:11.860Z,70.51
2019-06-26T07:57:39.841Z,69.18
2019-06-26T08:00:09.833Z,68.38
2019-06-26T08:02:38.889Z,67.16
2019-06-26T08:05:08.990Z,66.82
2019-06-26T08:07:38.710Z,71.97
2019-06-26T08:10:08.380Z,72.51
2019-06-26T08:12:37.450Z,76.04
2019-06-26T08:15:08.401Z,76.74
2019-06-26T08:17:37.517Z,80.48
2019-06-26T08:20:07.229Z,78.75
2019-06-26T08:22:36.297Z,77.64
2019-06-26T08:25:06.995Z,79.24
2019-06-26T08:27:36.592Z,73.45
2019-06-26T08:30:09.778Z,71.77
2019-06-26T08:32:38.907Z,75.53
2019-06-26T08:35:08.481Z,74.55
2019-06-26T08:37:37.613Z,77.04
2019-06-26T08:40:07.983Z,77.27
2019-06-26T08:42:37.119Z,75.92
2019-06-26T08:45:08.202Z,75.89
2019-06-26T08:47:37.335Z,75.75
2019-06-26T08:50:08.046Z,75.13
2019-06-26T08:52:37.650Z,72.12
2019-06-26T08:55:08.234Z,70.87
2019-06-26T08:57:37.435Z,66.80
2019-06-26T09:00:08.930Z,67.94
2019-06-26T09:02:38.096Z,68.53
2019-06-26T09:07:35.833Z,60.66
2019-06-26T09:10:09.009Z,67.13
2019-06-26T09:12:38.331Z,61.90
2019-06-26T09:15:08.807Z,59.37
2019-06-26T09:17:37.875Z,55.60
2019-06-26T09:20:07.661Z,53.51
2019-06-26T09:22:36.708Z,48.85
2019-06-26T09:25:21.034Z,53.29
2019-06-26T09:27:39.044Z,57.88
2019-06-26T09:30:09.150Z,54.02
2019-06-26T09:32:38.283Z,55.77
2019-06-26T09:35:08.231Z,58.10
2019-06-26T09:37:37.265Z,58.10
2019-06-26T09:40:08.560Z,59.20
2019-06-26T09:42:37.595Z,60.63
2019-06-26T09:45:08.591Z,58.96
2019-06-26T09:47:37.616Z,52.56
2019-06-26T09:50:07.738Z,50.30
2019-06-26T09:52:36.794Z,60.49
2019-06-26T09:55:06.791Z,53.88
2019-06-26T09:57:35.910Z,50.15
2019-06-26T10:00:13.827Z,48.55
2019-06-26T10:02:42.969Z,58.27
2019-06-26T10:05:13.257Z,50.12
2019-06-26T10:07:43.828Z,50.93
2019-06-26T10:10:13.513Z,52.16
2019-06-26T10:12:42.560Z,46.84
2019-06-26T10:15:12.745Z,48.97
2019-06-26T10:17:42.219Z,54.69
2019-06-26T10:20:12.342Z,53.98
2019-06-26T10:22:41.366Z,54.90
2019-06-26T10:25:11.863Z,53.68
2019-06-26T10:27:40.942Z,57.95
2019-06-26T10:30:11.960Z,53.09
2019-06-26T10:32:41.066Z,56.06
2019-06-26T10:35:10.591Z,49.63
2019-06-26T10:37:39.772Z,46.70
2019-06-26T10:40:09.824Z,51.78
2019-06-26T10:42:38.881Z,51.97
2019-06-26T10:45:08.758Z,54.84
2019-06-26T10:47:39.783Z,49.01
2019-06-26T10:50:09.161Z,48.86
2019-06-26T10:52:38.278Z,47.06
2019-06-26T10:55:07.656Z,46.96
2019-06-26T10:57:36.976Z,50.72
2019-06-26T11:00:09.098Z,50.80
2019-06-26T11:02:38.768Z,47.55
2019-06-26T11:05:09.277Z,46.34
2019-06-26T11:07:38.563Z,49.61
2019-06-26T11:10:09.643Z,47.64
2019-06-26T11:12:38.730Z,48.08
2019-06-26T11:15:08.817Z,52.51
2019-06-26T11:17:37.922Z,55.39
2019-06-26T11:20:08.418Z,55.84
2019-06-26T11:22:37.535Z,55.66
2019-06-26T11:25:08.420Z,53.44
2019-06-26T11:27:37.853Z,57.97
2019-06-26T11:30:09.330Z,60.83
2019-06-26T11:32:38.477Z,59.14
2019-06-26T11:35:08.560Z,59.51
2019-06-26T11:37:38.189Z,58.50
2019-06-26T11:40:08.362Z,55.54
2019-06-26T11:42:38.052Z,55.63
2019-06-26T11:45:08.669Z,56.97
2019-06-26T11:47:38.253Z,55.85
2019-06-26T11:50:09.244Z,52.90
2019-06-26T11:52:38.742Z,53.24
2019-06-26T11:55:09.525Z,53.98
2019-06-26T11:57:38.645Z,53.85
2019-06-26T12:00:10.292Z,54.07
2019-06-26T12:02:39.649Z,52.04
2019-06-26T12:05:09.341Z,51.24
2019-06-26T12:07:38.526Z,51.14
2019-06-26T12:10:09.999Z,50.93
2019-06-26T12:12:39.482Z,50.05
2019-06-26T12:15:09.470Z,51.11
2019-06-26T12:17:38.478Z,49.04
2019-06-26T12:20:18.608Z,50.65
2019-06-26T12:22:39.606Z,49.48
2019-06-26T12:25:09.498Z,49.02
2019-06-26T12:27:38.529Z,49.77
2019-06-26T12:30:10.380Z,47.84
2019-06-26T12:32:42.303Z,46.82
2019-06-26T12:35:11.023Z,47.87
2019-06-26T12:37:40.211Z,47.21
2019-06-26T12:40:09.633Z,46.75
2019-06-26T12:42:38.729Z,48.05
2019-06-26T12:45:08.743Z,46.20
2019-06-26T12:47:37.846Z,48.39
2019-06-26T12:50:09.092Z,48.12
2019-06-26T12:52:38.184Z,48.39
2019-06-26T12:55:07.423Z,48.73
2019-06-26T12:57:36.709Z,48.30
2019-06-26T13:00:09.135Z,47.91
2019-06-26T13:02:38.167Z,48.00
2019-06-26T13:05:08.269Z,50.57
2019-06-26T13:07:37.382Z,51.12
2019-06-26T13:10:08.082Z,51.05
2019-06-26T13:12:37.735Z,48.93
2019-06-26T13:15:09.421Z,49.10
2019-06-26T13:17:39.070Z,49.63
2019-06-26T13:20:10.528Z,47.35
2019-06-26T13:22:39.911Z,46.96
2019-06-26T13:25:09.554Z,46.48
2019-06-26T13:27:38.738Z,48.10
2019-06-26T13:30:09.064Z,48.81
2019-06-26T13:32:38.242Z,49.54
2019-06-26T13:35:08.251Z,48.40
2019-06-26T13:37:37.273Z,49.15
2019-06-26T13:40:07.509Z,50.72
2019-06-26T13:42:36.617Z,50.28
2019-06-26T13:45:07.185Z,51.23
2019-06-26T13:47:36.513Z,49.40
2019-06-26T13:50:07.575Z,48.23
2019-06-26T13:52:36.866Z,50.35
2019-06-26T13:55:06.775Z,50.45
2019-06-26T13:57:35.862Z,50.39
2019-06-26T14:00:09.174Z,50.39
2019-06-26T14:02:38.221Z,50.54
2019-06-26T14:05:10.976Z,49.54
2019-06-26T14:07:40.083Z,49.92
2019-06-26T14:10:11.166Z,50.68
2019-06-26T14:12:40.284Z,50.38
2019-06-26T14:15:10.230Z,50.03
2019-06-26T14:17:39.352Z,49.05
2019-06-26T14:20:09.643Z,49.94
2019-06-26T14:22:38.792Z,49.57
2019-06-26T14:25:09.099Z,49.26
2019-06-26T14:27:38.421Z,49.15
2019-06-26T14:30:08.700Z,49.85
2019-06-26T14:32:37.779Z,49.66
2019-06-26T14:35:07.457Z,49.72
2019-06-26T14:37:36.573Z,49.83
2019-06-26T14:40:09.541Z,53.68
2019-06-26T14:42:38.874Z,53.11
2019-06-26T14:45:08.556Z,52.04
2019-06-26T14:47:38.267Z,52.79
2019-06-26T14:50:08.173Z,54.00
2019-06-26T14:52:37.245Z,53.61
2019-06-26T14:55:07.850Z,54.03
2019-06-26T14:57:36.947Z,53.39
2019-06-26T15:00:08.326Z,54.15
2019-06-26T15:02:37.364Z,54.13
2019-06-26T15:05:07.840Z,52.83
2019-06-26T15:07:37.082Z,52.63
2019-06-26T15:10:08.657Z,51.77
2019-06-26T15:12:37.837Z,53.23
2019-06-26T15:15:07.822Z,50.08
2019-06-26T15:17:37.489Z,51.60
2019-06-26T15:20:09.794Z,51.56
2019-06-26T15:22:38.844Z,52.73
2019-06-26T15:25:08.850Z,51.21
2019-06-26T15:27:37.900Z,50.31
2019-06-26T15:30:08.922Z,48.98
2019-06-26T15:32:37.959Z,49.46
2019-06-26T15:35:08.049Z,49.85
2019-06-26T15:37:37.225Z,49.99
2019-06-26T15:40:08.117Z,50.79
2019-06-26T15:42:37.181Z,50.99
2019-06-26T15:45:07.982Z,49.14
2019-06-26T15:47:37.060Z,49.32
2019-06-26T15:50:10.788Z,50.40
2019-06-26T15:52:40.149Z,48.00
2019-06-26T15:55:09.724Z,48.71
2019-06-26T15:57:38.844Z,50.40
2019-06-26T16:00:09.952Z,50.01
2019-06-26T16:02:39.006Z,51.24
2019-06-26T16:05:08.704Z,50.41
2019-06-26T16:07:37.758Z,50.88
2019-06-26T16:10:07.657Z,52.23
2019-06-26T16:12:36.791Z,52.48
2019-06-26T16:15:07.582Z,51.51
2019-06-26T16:17:53.629Z,51.31
2019-06-26T16:20:23.527Z,52.27
2019-06-26T16:22:54.124Z,52.54
2019-06-26T16:25:23.457Z,53.07
2019-06-26T16:28:04.649Z,53.81
2019-06-26T16:30:24.691Z,53.78
2019-06-26T16:32:56.833Z,54.26
2019-06-26T16:35:25.938Z,54.58
2019-06-26T16:37:55.284Z,54.86
2019-06-26T16:40:24.579Z,56.74
2019-06-26T16:42:53.845Z,55.21
2019-06-26T16:45:23.054Z,56.33
2019-06-26T16:47:52.266Z,55.59
2019-06-26T16:50:21.554Z,56.39
2019-06-26T16:52:50.975Z,55.18
2019-06-26T16:55:20.164Z,55.24
2019-06-26T16:57:49.207Z,55.43
2019-06-26T17:00:19.124Z,54.65
2019-06-26T17:02:48.160Z,54.84
2019-06-26T17:05:17.856Z,54.86
2019-06-26T17:07:47.065Z,55.21
2019-06-26T17:10:17.933Z,56.85
2019-06-26T17:12:47.137Z,56.01
2019-06-26T17:15:16.412Z,56.01
2019-06-26T17:17:45.578Z,55.79
2019-06-26T17:20:15.191Z,56.31
2019-06-26T17:22:44.300Z,57.28
2019-06-26T17:25:13.619Z,56.95
2019-06-26T17:27:42.728Z,56.84
2019-06-26T17:30:12.748Z,56.09
2019-06-26T17:32:41.794Z,57.00
2019-06-26T17:35:10.840Z,57.43
2019-06-26T17:37:39.873Z,58.77
2019-06-26T17:40:09.791Z,58.24
2019-06-26T17:42:38.848Z,58.56
2019-06-26T17:45:08.338Z,58.20
2019-06-26T17:47:37.571Z,59.00
2019-06-26T17:50:08.547Z,58.85
2019-06-26T17:52:38.735Z,58.61
2019-06-26T17:55:09.184Z,58.67
2019-06-26T17:57:38.283Z,59.45
2019-06-26T18:00:08.683Z,59.39
2019-06-26T18:02:37.752Z,60.16
2019-06-26T18:05:07.857Z,60.96
2019-06-26T18:07:36.908Z,61.35
2019-06-26T18:10:07.236Z,61.74
2019-06-26T18:12:36.313Z,62.73
2019-06-26T18:15:08.234Z,63.84
2019-06-26T18:17:37.368Z,64.82
2019-06-26T18:20:07.744Z,65.84
2019-06-26T18:22:36.808Z,66.49
2019-06-26T18:25:06.696Z,67.04
2019-06-26T18:27:35.839Z,68.65
2019-06-26T18:30:10.031Z,70.34
2019-06-26T18:32:39.526Z,71.26
2019-06-26T18:35:08.959Z,72.54
2019-06-26T18:37:38.070Z,72.93
2019-06-26T18:40:08.086Z,74.25
2019-06-26T18:42:37.458Z,74.96
2019-06-26T18:45:07.460Z,75.15
2019-06-26T18:47:36.516Z,75.95
2019-06-26T18:50:07.724Z,76.54
2019-06-26T18:52:36.786Z,77.65
2019-06-26T18:55:09.549Z,77.82
2019-06-26T18:57:38.615Z,78.11
2019-06-26T19:00:10.113Z,79.24
2019-06-26T19:02:39.142Z,78.76
2019-06-26T19:05:09.055Z,78.41
2019-06-26T19:07:38.129Z,78.96
2019-06-26T19:10:09.293Z,79.97
2019-06-26T19:12:38.370Z,80.85
2019-06-26T19:15:08.249Z,80.64
2019-06-26T19:17:37.538Z,81.07
2019-06-26T19:20:08.728Z,81.58
2019-06-26T19:22:37.938Z,81.55
2019-06-26T19:25:07.937Z,81.17
2019-06-26T19:27:37.223Z,81.88
2019-06-26T19:30:10.354Z,81.30
2019-06-26T19:32:39.620Z,80.80
2019-06-26T19:35:18.644Z,82.28
2019-06-26T19:37:40.949Z,82.13
2019-06-26T19:40:10.700Z,83.21
2019-06-26T19:42:40.059Z,82.18
2019-06-26T19:45:10.710Z,81.97
2019-06-26T19:47:39.864Z,82.11
2019-06-26T19:50:09.538Z,82.90
2019-06-26T19:52:38.873Z,83.63
2019-06-26T19:55:08.734Z,83.71
2019-06-26T19:57:37.812Z,84.22
2019-06-26T20:00:09.856Z,84.49
2019-06-26T20:02:38.905Z,84.97
2019-06-26T20:05:08.581Z,84.61
2019-06-26T20:07:37.645Z,85.00
2019-06-26T20:10:09.133Z,84.77
2019-06-26T20:12:38.200Z,85.57
2019-06-26T20:15:09.091Z,85.42
2019-06-26T20:17:38.237Z,85.56
2019-06-26T20:20:09.346Z,86.57
2019-06-26T20:22:39.003Z,86.74
2019-06-26T20:25:09.771Z,86.81
2019-06-26T20:27:38.932Z,86.97
2019-06-26T20:30:10.061Z,87.19
2019-06-26T20:32:39.329Z,87.91
2019-06-26T20:35:08.505Z,87.45
2019-06-26T20:37:37.561Z,87.76
2019-06-26T20:40:08.668Z,87.93
2019-06-26T20:42:37.700Z,87.13
2019-06-26T20:45:08.521Z,86.39
2019-06-26T20:47:37.569Z,85.81
2019-06-26T20:50:07.637Z,86.06
2019-06-26T20:52:36.960Z,85.61
2019-06-26T20:55:07.507Z,85.83
2019-06-26T20:57:36.558Z,86.47
2019-06-26T21:00:10.055Z,86.42
2019-06-26T21:02:39.183Z,86.29
2019-06-26T21:05:08.266Z,86.78
2019-06-26T21:07:37.329Z,86.40
2019-06-26T21:10:06.816Z,86.91
2019-06-26T21:12:35.927Z,87.06
2019-06-26T21:15:07.445Z,87.05
2019-06-26T21:17:36.959Z,87.11
2019-06-26T21:20:08.902Z,86.58
2019-06-26T21:22:37.957Z,87.34
2019-06-26T21:25:18.329Z,87.12
2019-06-26T21:27:38.736Z,87.38
2019-06-26T21:30:08.445Z,88.05
2019-06-26T21:32:37.483Z,87.30
2019-06-26T21:35:06.825Z,87.48
2019-06-26T21:37:36.253Z,87.79
2019-06-26T21:40:08.932Z,88.08
2019-06-26T21:42:38.105Z,87.45
2019-06-26T21:45:07.685Z,88.35
2019-06-26T21:47:36.823Z,88.89
2019-06-26T21:50:07.385Z,89.11
2019-06-26T21:52:36.494Z,89.39
2019-06-26T21:55:06.804Z,88.13
2019-06-26T21:57:36.114Z,88.01
2019-06-26T22:00:10.594Z,88.56
2019-06-26T22:02:39.776Z,88.65
2019-06-26T22:05:10.135Z,88.85
2019-06-26T22:07:39.279Z,89.80
2019-06-26T22:10:09.756Z,89.36
2019-06-26T22:12:38.989Z,90.10
2019-06-26T22:15:08.371Z,89.61
2019-06-26T22:17:37.450Z,89.06
2019-06-26T22:20:12.323Z,89.48
2019-06-26T22:22:39.369Z,89.25
2019-06-26T22:25:08.913Z,89.40
2019-06-26T22:27:38.148Z,89.19
2019-06-26T22:30:08.530Z,87.64
2019-06-26T22:32:38.053Z,88.12
2019-06-26T22:35:07.876Z,87.98
2019-06-26T22:37:37.187Z,87.48
2019-06-26T22:40:06.468Z,88.19
2019-06-26T22:42:35.520Z,88.36
2019-06-26T22:45:05.779Z,87.84
2019-06-26T22:47:34.899Z,88.05
2019-06-26T22:50:06.309Z,88.21
2019-06-26T22:52:35.637Z,88.45
2019-06-26T22:55:06.601Z,88.27
2019-06-26T22:57:35.889Z,87.58
2019-06-26T23:00:10.800Z,87.98
2019-06-26T23:02:41.647Z,89.31
2019-06-26T23:05:11.451Z,89.23
2019-06-26T23:07:40.524Z,89.16
2019-06-26T23:10:10.461Z,89.42
2019-06-26T23:12:39.484Z,88.86
2019-06-26T23:15:09.102Z,87.06
2019-06-26T23:17:38.123Z,87.47
2019-06-26T23:20:09.075Z,87.15
2019-06-26T23:22:38.104Z,87.65
2019-06-26T23:25:07.683Z,86.69
2019-06-26T23:27:36.706Z,86.39
2019-06-26T23:30:18.153Z,85.65
2019-06-26T23:32:47.566Z,86.17
2019-06-26T23:35:17.169Z,87.42
2019-06-26T23:37:46.265Z,88.30
2019-06-26T23:40:15.386Z,88.11
2019-06-26T23:42:44.601Z,88.42
2019-06-26T23:45:14.607Z,87.18
2019-06-26T23:47:43.799Z,88.25
2019-06-26T23:50:13.387Z,89.91
2019-06-26T23:52:42.541Z,88.52
2019-06-26T23:55:11.996Z,86.64
2019-06-26T23:57:57.691Z,84.49
